createdAt,value
2018-04-26T00:02:25.856Z,7.17
2018-04-26T00:04:53.466Z,10.00
2018-04-26T00:07:21.823Z,10.33
2018-04-26T00:09:49.421Z,8.20
2018-04-26T00:12:17.034Z,11.73
2018-04-26T00:14:44.634Z,11.10
2018-04-26T00:17:12.226Z,10.70
2018-04-26T00:19:39.826Z,7.53
2018-04-26T00:22:07.431Z,6.53
2018-04-26T00:24:35.023Z,7.97
2018-04-26T00:27:02.663Z,8.07
2018-04-26T00:29:30.251Z,8.13
2018-04-26T00:31:57.854Z,10.70
2018-04-26T00:34:25.466Z,12.00
2018-04-26T00:36:53.058Z,9.67
2018-04-26T00:39:21.412Z,7.60
2018-04-26T00:41:49.016Z,3.70
2018-04-26T00:44:17.921Z,8.57
2018-04-26T00:46:45.516Z,7.70
2018-04-26T00:49:13.114Z,8.53
2018-04-26T00:54:39.046Z,10.50
2018-04-26T00:57:07.402Z,7.37
2018-04-26T00:59:34.991Z,8.83
2018-04-26T01:02:03.358Z,9.70
2018-04-26T01:04:30.973Z,8.53
2018-04-26T01:06:58.558Z,8.37
2018-04-26T01:09:26.161Z,6.83
2018-04-26T01:11:53.750Z,7.80
2018-04-26T01:14:21.338Z,8.63
2018-04-26T01:16:48.937Z,12.80
2018-04-26T01:19:16.543Z,11.30
2018-04-26T01:21:44.138Z,8.33
2018-04-26T01:24:12.511Z,12.03
2018-04-26T01:26:40.130Z,8.10
2018-04-26T01:29:07.734Z,12.87
2018-04-26T01:31:36.102Z,7.37
2018-04-26T01:34:03.690Z,7.83
2018-04-26T01:36:43.663Z,8.90
2018-04-26T01:39:11.249Z,8.20
2018-04-26T01:41:39.610Z,5.93
2018-04-26T01:44:07.252Z,5.33
2018-04-26T01:46:34.882Z,8.43
2018-04-26T01:49:02.485Z,9.07
2018-04-26T01:51:30.104Z,6.93
2018-04-26T01:53:57.734Z,8.47
2018-04-26T01:56:25.328Z,10.03
2018-04-26T01:58:52.966Z,6.87
2018-04-26T02:01:20.558Z,9.63
2018-04-26T02:03:48.150Z,11.90
2018-04-26T02:06:16.522Z,9.83
2018-04-26T02:08:44.114Z,7.43
2018-04-26T02:11:11.697Z,8.77
2018-04-26T02:13:39.320Z,8.10
2018-04-26T02:16:06.943Z,6.97
2018-04-26T02:18:34.533Z,6.43
2018-04-26T02:21:02.134Z,9.20
2018-04-26T02:23:29.717Z,5.90
2018-04-26T02:25:58.073Z,9.33
2018-04-26T02:28:25.696Z,7.87
2018-04-26T02:30:53.282Z,6.43
2018-04-26T02:33:20.869Z,9.40
2018-04-26T02:35:48.473Z,7.47
2018-04-26T02:38:16.074Z,7.93
2018-04-26T02:40:43.708Z,11.27
2018-04-26T02:43:11.339Z,10.63
2018-04-26T02:45:38.934Z,7.40
2018-04-26T02:48:06.530Z,6.15
2018-04-26T02:50:34.140Z,10.37
2018-04-26T02:53:01.725Z,7.83
2018-04-26T02:55:29.331Z,6.83
2018-04-26T02:57:56.956Z,8.97
2018-04-26T03:00:24.561Z,5.80
2018-04-26T03:02:52.199Z,7.40
2018-04-26T03:05:19.826Z,6.43
2018-04-26T03:07:47.472Z,7.63
2018-04-26T03:10:15.078Z,8.17
2018-04-26T03:12:43.466Z,12.50
2018-04-26T03:15:11.063Z,8.47
2018-04-26T03:17:38.656Z,8.77
2018-04-26T03:20:06.290Z,10.27
2018-04-26T03:22:33.885Z,11.07
2018-04-26T03:25:02.242Z,8.57
2018-04-26T03:27:29.847Z,8.03
2018-04-26T03:29:57.439Z,10.67
2018-04-26T03:32:25.027Z,9.00
2018-04-26T03:34:52.629Z,10.83
2018-04-26T03:37:21.081Z,9.87
2018-04-26T03:39:48.633Z,7.37
2018-04-26T03:42:16.238Z,9.97
2018-04-26T03:44:43.875Z,12.57
2018-04-26T03:47:11.477Z,14.57
2018-04-26T03:49:39.081Z,14.40
2018-04-26T03:52:06.670Z,12.50
2018-04-26T03:54:34.265Z,13.83
2018-04-26T03:57:02.629Z,13.37
2018-04-26T03:59:30.218Z,8.70
2018-04-26T04:02:24.585Z,11.63
2018-04-26T04:05:03.878Z,10.43
2018-04-26T04:07:31.483Z,7.33
2018-04-26T04:09:59.074Z,9.93
2018-04-26T04:12:26.681Z,8.83
2018-04-26T04:14:54.306Z,7.73
2018-04-26T04:17:22.662Z,8.73
2018-04-26T04:19:50.257Z,8.97
2018-04-26T04:22:17.853Z,8.77
2018-04-26T04:24:46.215Z,10.50
2018-04-26T04:27:13.808Z,8.23
2018-04-26T04:29:41.418Z,13.37
2018-04-26T04:32:09.014Z,9.67
2018-04-26T04:34:36.601Z,10.03
2018-04-26T04:37:04.207Z,9.17
2018-04-26T04:39:32.576Z,11.37
2018-04-26T04:42:00.170Z,10.47
2018-04-26T04:44:27.798Z,12.67
2018-04-26T04:46:55.437Z,14.27
2018-04-26T04:49:23.086Z,13.60
2018-04-26T04:51:50.754Z,13.93
2018-04-26T04:54:19.110Z,14.67
2018-04-26T04:56:46.707Z,11.23
2018-04-26T04:59:14.418Z,11.13
2018-04-26T05:01:42.033Z,12.40
2018-04-26T05:04:10.394Z,12.20
2018-04-26T05:06:38.765Z,10.00
2018-04-26T05:09:06.363Z,11.80
2018-04-26T05:11:33.961Z,14.77
2018-04-26T05:14:01.578Z,14.43
2018-04-26T05:16:29.170Z,9.93
2018-04-26T05:18:56.768Z,12.27
2018-04-26T05:21:24.384Z,9.40
2018-04-26T05:23:51.983Z,10.20
2018-04-26T05:26:19.646Z,13.63
2018-04-26T05:28:47.250Z,10.93
2018-04-26T05:31:14.843Z,12.90
2018-04-26T05:33:43.318Z,12.60
2018-04-26T05:36:10.870Z,8.37
2018-04-26T05:38:38.463Z,10.17
2018-04-26T05:41:07.581Z,14.47
2018-04-26T05:43:35.957Z,12.63
2018-04-26T05:46:04.374Z,14.80
2018-04-26T05:48:32.042Z,11.90
2018-04-26T05:50:59.723Z,8.60
2018-04-26T05:53:28.103Z,12.20
2018-04-26T05:55:55.725Z,12.97
2018-04-26T05:58:23.372Z,11.00
2018-04-26T06:00:50.970Z,12.00
2018-04-26T06:03:18.602Z,13.27
2018-04-26T06:05:46.204Z,12.43
2018-04-26T06:08:13.796Z,10.00
2018-04-26T06:10:42.150Z,9.13
2018-04-26T06:13:09.764Z,10.47
2018-04-26T06:15:37.378Z,10.27
2018-04-26T06:18:04.974Z,11.07
2018-04-26T06:20:32.660Z,11.30
2018-04-26T06:23:00.288Z,12.93
2018-04-26T06:25:28.646Z,11.23
2018-04-26T06:27:56.256Z,15.77
2018-04-26T06:30:23.850Z,15.90
2018-04-26T06:32:51.439Z,12.73
2018-04-26T06:35:19.047Z,15.83
2018-04-26T06:37:46.641Z,16.63
2018-04-26T06:40:14.249Z,14.03
2018-04-26T06:42:41.859Z,13.77
2018-04-26T06:45:09.459Z,16.07
2018-04-26T06:47:37.058Z,15.40
2018-04-26T06:50:04.665Z,16.30
2018-04-26T06:52:33.129Z,14.27
2018-04-26T06:55:00.719Z,11.20
2018-04-26T06:57:28.354Z,13.93
2018-04-26T06:59:55.982Z,12.30
2018-04-26T07:02:23.602Z,14.03
2018-04-26T07:04:51.214Z,11.80
2018-04-26T07:07:18.818Z,16.60
2018-04-26T07:09:46.410Z,13.93
2018-04-26T07:12:14.015Z,13.20
2018-04-26T07:14:42.379Z,18.50
2018-04-26T07:17:09.993Z,18.57
2018-04-26T07:19:37.622Z,17.87
2018-04-26T07:22:05.254Z,13.67
2018-04-26T07:24:32.877Z,14.90
2018-04-26T07:27:00.479Z,11.87
2018-04-26T07:29:28.106Z,12.40
2018-04-26T07:31:55.706Z,11.07
2018-04-26T07:34:24.085Z,13.10
2018-04-26T07:36:51.682Z,14.07
2018-04-26T07:39:19.300Z,13.13
2018-04-26T07:41:46.926Z,14.03
2018-04-26T07:44:14.520Z,12.13
2018-04-26T07:46:42.173Z,13.33
2018-04-26T07:49:09.774Z,9.87
2018-04-26T07:51:37.430Z,11.80
2018-04-26T07:54:05.023Z,12.13
2018-04-26T07:56:32.622Z,11.17
2018-04-26T07:59:01.031Z,11.00
2018-04-26T08:01:28.680Z,10.30
2018-04-26T08:03:56.276Z,13.57
2018-04-26T08:06:23.896Z,9.23
2018-04-26T08:08:52.290Z,7.60
2018-04-26T08:11:19.910Z,8.27
2018-04-26T08:13:47.509Z,8.80
2018-04-26T08:16:16.251Z,8.50
2018-04-26T08:18:43.950Z,8.73
2018-04-26T08:21:12.322Z,12.17
2018-04-26T08:23:39.966Z,7.33
2018-04-26T08:26:07.591Z,7.87
2018-04-26T08:28:35.207Z,6.53
2018-04-26T08:31:03.634Z,8.27
2018-04-26T08:33:31.283Z,8.17
2018-04-26T08:35:58.891Z,8.20
2018-04-26T08:38:26.486Z,7.60
2018-04-26T08:40:54.108Z,6.60
2018-04-26T08:43:21.710Z,8.17
2018-04-26T08:45:49.311Z,9.23
2018-04-26T08:48:16.922Z,8.20
2018-04-26T08:50:44.519Z,7.80
2018-04-26T08:53:12.128Z,10.83
2018-04-26T08:55:39.770Z,9.47
2018-04-26T08:58:07.367Z,7.80
2018-04-26T09:00:34.987Z,12.63
2018-04-26T09:03:02.635Z,9.10
2018-04-26T09:05:30.230Z,12.57
2018-04-26T09:07:57.836Z,10.93
2018-04-26T09:10:25.474Z,13.57
2018-04-26T09:12:53.067Z,9.30
2018-04-26T09:15:20.663Z,14.93
2018-04-26T09:17:48.282Z,13.67
2018-04-26T09:20:15.878Z,12.20
2018-04-26T09:22:43.475Z,10.50
2018-04-26T09:25:11.094Z,11.10
2018-04-26T09:27:38.719Z,13.27
2018-04-26T09:30:06.327Z,11.63
2018-04-26T09:32:34.002Z,13.57
2018-04-26T09:35:02.367Z,11.90
2018-04-26T09:37:30.739Z,13.13
2018-04-26T09:39:58.370Z,11.73
2018-04-26T09:42:26.012Z,12.33
2018-04-26T09:44:53.623Z,11.63
2018-04-26T09:47:21.246Z,13.83
2018-04-26T09:49:48.833Z,12.13
2018-04-26T09:52:16.446Z,12.77
2018-04-26T09:54:44.088Z,13.20
2018-04-26T09:57:11.690Z,12.20
2018-04-26T09:59:39.286Z,11.87
2018-04-26T10:02:07.672Z,12.10
2018-04-26T10:04:41.698Z,13.00
2018-04-26T10:07:09.333Z,9.87
2018-04-26T10:09:36.970Z,12.23
2018-04-26T10:12:04.573Z,8.60
2018-04-26T10:14:32.187Z,11.83
2018-04-26T10:16:59.804Z,10.93
2018-04-26T10:19:27.446Z,11.97
2018-04-26T10:21:55.067Z,10.77
2018-04-26T10:24:22.662Z,8.83
2018-04-26T10:26:50.274Z,10.40
2018-04-26T10:29:17.883Z,10.07
2018-04-26T10:31:46.283Z,7.93
2018-04-26T10:34:13.894Z,9.73
2018-04-26T10:36:41.502Z,8.73
2018-04-26T10:39:09.094Z,9.20
2018-04-26T10:41:36.682Z,9.90
2018-04-26T10:44:04.331Z,12.20
2018-04-26T10:46:31.931Z,10.47
2018-04-26T10:48:59.526Z,11.47
2018-04-26T10:51:27.134Z,12.57
2018-04-26T10:53:54.732Z,6.93
2018-04-26T10:56:22.331Z,10.87
2018-04-26T10:58:49.978Z,11.40
2018-04-26T11:01:17.590Z,9.07
2018-04-26T11:03:45.186Z,8.23
2018-04-26T11:06:12.790Z,11.83
2018-04-26T11:08:40.382Z,6.00
2018-04-26T11:11:08.743Z,10.20
2018-04-26T11:13:36.353Z,7.07
2018-04-26T11:16:03.957Z,11.43
2018-04-26T11:18:31.573Z,8.20
2018-04-26T11:20:59.184Z,9.00
2018-04-26T11:23:26.783Z,9.03
2018-04-26T11:25:54.394Z,9.63
2018-04-26T11:28:22.028Z,9.00
2018-04-26T11:30:49.621Z,10.57
2018-04-26T11:33:17.218Z,8.50
2018-04-26T11:35:44.825Z,10.60
2018-04-26T11:38:12.414Z,6.90
2018-04-26T11:40:40.795Z,8.30
2018-04-26T11:43:09.169Z,9.80
2018-04-26T11:45:37.918Z,9.70
2018-04-26T11:48:05.519Z,7.73
2018-04-26T11:50:33.155Z,7.87
2018-04-26T11:53:00.799Z,8.70
2018-04-26T11:55:28.420Z,6.07
2018-04-26T11:57:56.037Z,8.70
2018-04-26T12:00:23.666Z,8.27
2018-04-26T12:02:52.081Z,6.40
2018-04-26T12:05:19.709Z,7.40
2018-04-26T12:07:47.347Z,8.80
2018-04-26T12:10:15.718Z,8.33
2018-04-26T12:12:43.326Z,9.37
2018-04-26T12:15:10.918Z,6.43
2018-04-26T12:17:38.515Z,7.70
2018-04-26T12:20:06.136Z,9.13
2018-04-26T12:22:33.739Z,7.90
2018-04-26T12:25:01.340Z,14.17
2018-04-26T12:27:28.950Z,8.43
2018-04-26T12:29:56.590Z,9.23
2018-04-26T12:32:24.190Z,10.20
2018-04-26T12:34:51.836Z,9.20
2018-04-26T12:37:19.452Z,11.33
2018-04-26T12:39:47.051Z,11.70
2018-04-26T12:42:14.763Z,12.03
2018-04-26T12:44:42.306Z,16.30
2018-04-26T12:47:09.939Z,14.00
2018-04-26T12:49:37.551Z,14.50
2018-04-26T12:52:05.151Z,20.03
2018-04-26T12:54:34.111Z,17.17
2018-04-26T12:57:01.727Z,15.67
2018-04-26T12:59:29.326Z,15.17
2018-04-26T13:01:56.954Z,11.90
2018-04-26T13:04:24.585Z,6.73
2018-04-26T13:06:52.240Z,6.53
2018-04-26T13:09:19.865Z,6.50
2018-04-26T13:11:47.478Z,5.63
2018-04-26T13:14:15.078Z,5.03
2018-04-26T13:16:42.684Z,7.47
2018-04-26T13:19:10.331Z,3.47
2018-04-26T13:21:37.994Z,4.00
2018-04-26T13:24:05.598Z,4.37
2018-04-26T13:26:33.269Z,4.90
2018-04-26T13:29:00.890Z,4.90
2018-04-26T13:31:28.494Z,8.27
2018-04-26T13:33:57.032Z,8.17
2018-04-26T13:36:29.028Z,3.03
2018-04-26T13:38:57.987Z,4.93
2018-04-26T13:41:26.953Z,5.07
2018-04-26T13:43:55.715Z,1.50
2018-04-26T13:46:24.527Z,3.40
2018-04-26T13:48:52.095Z,5.63
2018-04-26T13:51:19.691Z,3.00
2018-04-26T13:53:47.301Z,2.80
2018-04-26T13:56:14.905Z,3.17
2018-04-26T13:58:42.495Z,3.07
2018-04-26T14:01:10.094Z,1.77
2018-04-26T14:03:38.466Z,2.83
2018-04-26T14:06:06.818Z,2.20
2018-04-26T14:08:34.452Z,2.77
2018-04-26T14:11:02.042Z,2.83
2018-04-26T14:13:29.630Z,6.27
2018-04-26T14:15:58.418Z,4.97
2018-04-26T14:18:26.948Z,2.03
2018-04-26T14:20:54.543Z,3.80
2018-04-26T14:23:22.176Z,6.17
2018-04-26T14:25:49.791Z,3.83
2018-04-26T14:28:17.375Z,3.63
2018-04-26T14:30:44.977Z,6.60
2018-04-26T14:33:12.566Z,8.37
2018-04-26T14:35:40.982Z,7.27
2018-04-26T14:38:08.589Z,6.85
2018-04-26T14:40:36.242Z,6.37
2018-04-26T14:43:03.826Z,4.43
2018-04-26T14:45:31.446Z,4.80
2018-04-26T14:47:59.048Z,8.17
2018-04-26T14:50:27.802Z,7.63
2018-04-26T14:52:55.442Z,4.30
2018-04-26T14:55:23.066Z,4.63
2018-04-26T14:57:50.685Z,2.93
2018-04-26T15:00:18.291Z,3.73
2018-04-26T15:02:45.894Z,3.90
2018-04-26T15:05:13.490Z,1.83
2018-04-26T15:07:41.886Z,3.27
2018-04-26T15:10:09.482Z,4.33
2018-04-26T15:12:37.847Z,2.30
2018-04-26T15:15:05.458Z,2.80
2018-04-26T15:17:33.822Z,2.87
2018-04-26T15:20:01.426Z,2.80
2018-04-26T15:22:29.074Z,2.53
2018-04-26T15:24:56.718Z,2.37
2018-04-26T15:27:24.342Z,1.53
2018-04-26T15:29:51.974Z,4.47
2018-04-26T15:32:19.569Z,2.50
2018-04-26T15:34:47.155Z,3.47
2018-04-26T15:37:15.539Z,3.93
2018-04-26T15:39:43.898Z,2.00
2018-04-26T15:42:11.525Z,3.27
2018-04-26T15:44:39.138Z,2.57
2018-04-26T15:47:06.759Z,4.90
2018-04-26T15:49:34.386Z,2.43
2018-04-26T15:52:02.784Z,3.20
2018-04-26T15:54:36.801Z,3.57
2018-04-26T15:57:22.006Z,2.43
2018-04-26T16:00:01.500Z,2.70
2018-04-26T16:02:57.306Z,2.53
2018-04-26T16:05:36.698Z,2.77
2018-04-26T16:08:21.833Z,3.23
2018-04-26T16:11:06.885Z,2.77
2018-04-26T16:13:51.973Z,1.03
2018-04-26T16:16:37.212Z,0.57
2018-04-26T16:19:27.999Z,4.07
2018-04-26T16:22:13.207Z,4.77
2018-04-26T16:24:53.765Z,3.57
2018-04-26T16:27:38.997Z,4.93
2018-04-26T16:30:18.194Z,4.80
2018-04-26T16:33:03.331Z,4.20
2018-04-26T16:35:42.759Z,6.63
2018-04-26T16:38:29.552Z,4.60
2018-04-26T16:40:58.276Z,4.40
2018-04-26T16:43:25.871Z,8.07
2018-04-26T16:45:53.471Z,5.13
2018-04-26T16:48:21.087Z,4.47
2018-04-26T16:50:48.687Z,3.60
2018-04-26T16:53:16.282Z,4.47
2018-04-26T16:55:43.886Z,2.77
2018-04-26T16:58:12.325Z,4.87
2018-04-26T17:00:39.926Z,4.53
2018-04-26T17:03:07.543Z,5.50
2018-04-26T17:05:35.137Z,7.80
2018-04-26T17:08:02.759Z,6.93
2018-04-26T17:10:30.386Z,4.13
2018-04-26T17:12:58.752Z,4.47
2018-04-26T17:15:26.419Z,5.70
2018-04-26T17:17:54.045Z,6.63
2018-04-26T17:20:21.641Z,5.70
2018-04-26T17:22:49.243Z,7.67
2018-04-26T17:25:16.850Z,6.27
2018-04-26T17:27:44.451Z,5.23
2018-04-26T17:30:12.042Z,6.57
2018-04-26T17:32:39.645Z,7.43
2018-04-26T17:35:08.006Z,6.67
2018-04-26T17:37:35.634Z,4.77
2018-04-26T17:40:03.331Z,6.07
2018-04-26T17:42:30.926Z,5.67
2018-04-26T17:44:58.531Z,3.67
2018-04-26T17:47:26.143Z,3.73
2018-04-26T17:49:54.502Z,5.83
2018-04-26T17:52:22.863Z,7.23
2018-04-26T17:54:50.505Z,8.63
2018-04-26T17:57:18.115Z,11.77
2018-04-26T17:59:46.486Z,10.03
2018-04-26T18:02:14.095Z,10.07
2018-04-26T18:04:50.848Z,12.80
2018-04-26T18:07:19.659Z,10.83
2018-04-26T18:09:47.250Z,8.10
2018-04-26T18:12:14.877Z,9.83
2018-04-26T18:14:42.518Z,8.17
2018-04-26T18:17:10.108Z,9.67
2018-04-26T18:19:37.794Z,12.30
2018-04-26T18:22:05.355Z,14.57
2018-04-26T18:24:32.961Z,11.00
2018-04-26T18:27:00.573Z,11.17
2018-04-26T18:29:28.178Z,12.53
2018-04-26T18:31:55.802Z,15.57
2018-04-26T18:34:23.401Z,15.37
2018-04-26T18:36:51.006Z,13.43
2018-04-26T18:39:18.626Z,10.57
2018-04-26T18:41:46.263Z,15.63
2018-04-26T18:44:14.646Z,12.00
2018-04-26T18:46:42.244Z,16.37
2018-04-26T18:49:09.930Z,13.90
2018-04-26T18:51:37.542Z,10.80
2018-04-26T18:54:05.138Z,10.37
2018-04-26T18:56:32.743Z,11.13
2018-04-26T18:59:01.110Z,16.97
2018-04-26T19:01:29.474Z,14.53
2018-04-26T19:03:57.070Z,16.27
2018-04-26T19:06:25.449Z,14.23
2018-04-26T19:08:53.131Z,11.07
2018-04-26T19:11:20.722Z,14.50
2018-04-26T19:13:48.331Z,15.30
2018-04-26T19:16:15.945Z,18.57
2018-04-26T19:18:43.551Z,11.50
2018-04-26T19:21:11.165Z,12.87
2018-04-26T19:23:38.818Z,17.73
2018-04-26T19:26:06.414Z,13.90
2018-04-26T19:28:34.813Z,10.43
2018-04-26T19:31:02.439Z,17.57
2018-04-26T19:33:30.121Z,11.83
2018-04-26T19:35:58.498Z,10.83
2018-04-26T19:38:26.863Z,11.17
2018-04-26T19:40:54.484Z,12.73
2018-04-26T19:43:22.098Z,14.83
2018-04-26T19:45:50.453Z,13.40
2018-04-26T19:48:18.058Z,12.27
2018-04-26T19:50:45.670Z,14.60
2018-04-26T19:53:13.422Z,18.67
2018-04-26T19:55:41.017Z,15.27
2018-04-26T19:58:09.395Z,12.27
2018-04-26T20:00:37.018Z,12.30
2018-04-26T20:03:04.629Z,11.53
2018-04-26T20:05:32.262Z,12.50
2018-04-26T20:07:59.917Z,11.33
2018-04-26T20:10:27.518Z,14.43
2018-04-26T20:12:55.126Z,11.30
2018-04-26T20:15:22.774Z,14.00
2018-04-26T20:17:50.373Z,14.80
2018-04-26T20:20:18.772Z,9.60
2018-04-26T20:22:46.428Z,15.37
2018-04-26T20:25:14.078Z,15.20
2018-04-26T20:27:41.708Z,8.57
2018-04-26T20:30:10.071Z,14.03
2018-04-26T20:32:37.671Z,16.67
2018-04-26T20:35:05.289Z,12.43
2018-04-26T20:37:32.922Z,14.70
2018-04-26T20:40:00.522Z,12.07
2018-04-26T20:42:28.171Z,15.13
2018-04-26T20:44:55.766Z,11.97
2018-04-26T20:47:23.434Z,13.40
2018-04-26T20:49:51.817Z,14.10
2018-04-26T20:52:20.170Z,10.17
2018-04-26T20:54:48.566Z,11.83
2018-04-26T20:57:16.975Z,14.07
2018-04-26T20:59:44.609Z,11.93
2018-04-26T21:02:12.212Z,9.77
2018-04-26T21:04:39.850Z,14.20
2018-04-26T21:07:07.447Z,10.00
2018-04-26T21:09:35.040Z,9.60
2018-04-26T21:12:02.671Z,8.23
2018-04-26T21:14:30.261Z,7.47
2018-04-26T21:16:57.870Z,8.27
2018-04-26T21:19:25.521Z,4.97
2018-04-26T21:21:53.106Z,8.30
2018-04-26T21:24:20.703Z,9.80
2018-04-26T21:26:48.305Z,9.70
2018-04-26T21:29:15.898Z,9.20
2018-04-26T21:31:43.494Z,6.77
2018-04-26T21:34:11.867Z,11.60
2018-04-26T21:36:40.274Z,6.47
2018-04-26T21:39:07.865Z,6.37
2018-04-26T21:41:36.234Z,4.30
2018-04-26T21:44:03.830Z,8.93
2018-04-26T21:46:31.427Z,9.33
2018-04-26T21:48:59.045Z,8.00
2018-04-26T21:51:32.382Z,10.63
2018-04-26T21:54:05.682Z,9.47
2018-04-26T21:56:38.929Z,9.77
2018-04-26T21:59:12.124Z,10.00
2018-04-26T22:01:45.222Z,10.30
2018-04-26T22:04:31.279Z,9.83
2018-04-26T22:06:58.882Z,11.40
2018-04-26T22:09:27.237Z,7.27
2018-04-26T22:11:54.846Z,6.73
2018-04-26T22:14:22.439Z,13.33
2018-04-26T22:16:50.030Z,15.13
2018-04-26T22:19:17.634Z,11.60
2018-04-26T22:21:45.264Z,14.17
2018-04-26T22:24:12.864Z,12.80
2018-04-26T22:26:40.482Z,10.93
2018-04-26T22:29:08.100Z,15.97
2018-04-26T22:31:35.693Z,10.27
2018-04-26T22:34:04.066Z,12.83
2018-04-26T22:36:31.675Z,14.40
2018-04-26T22:38:59.275Z,16.20
2018-04-26T22:41:26.889Z,14.93
2018-04-26T22:43:54.510Z,8.07
2018-04-26T22:46:22.270Z,8.97
2018-04-26T22:48:49.910Z,4.60
2018-04-26T22:51:17.530Z,4.93
2018-04-26T22:53:45.127Z,5.03
2018-04-26T22:56:12.734Z,3.43
2018-04-26T22:58:40.334Z,3.87
2018-04-26T23:01:07.926Z,1.77
2018-04-26T23:03:35.530Z,3.40
2018-04-26T23:06:03.129Z,6.13
2018-04-26T23:08:30.722Z,5.07
2018-04-26T23:10:58.390Z,8.43
2018-04-26T23:13:25.995Z,4.40
2018-04-26T23:15:53.578Z,4.50
2018-04-26T23:18:21.252Z,8.40
2018-04-26T23:20:48.845Z,6.17
2018-04-26T23:23:16.447Z,7.47
2018-04-26T23:25:44.058Z,11.07
2018-04-26T23:28:12.418Z,11.87
2018-04-26T23:30:40.012Z,8.73
2018-04-26T23:33:07.623Z,10.07
2018-04-26T23:35:35.227Z,9.63
2018-04-26T23:38:02.834Z,11.43
2018-04-26T23:40:30.478Z,8.83
2018-04-26T23:42:58.075Z,10.27
2018-04-26T23:45:25.743Z,10.27
2018-04-26T23:47:54.117Z,13.00
2018-04-26T23:50:21.714Z,10.10
2018-04-26T23:52:49.306Z,11.10
2018-04-26T23:55:16.913Z,6.83
2018-04-26T23:57:45.306Z,5.73
